KBYG/BYG METAR and TAF weather

Enter ICAO airport designator
Station Type Date Time Source
KBYG METAR 2023/02/05 22:53 UTC NOAA

KBYG 052253Z AUTO 34003KT 10SM SCT120 03/M05 A2959 RMK AO2 SLP031 T00331050


Station Type Date Time Source
KBYG Decoded METAR 2023/02/05 22:53 UTC NOAA

BUFFALO JOHNSON COUNTY AIRPORT , WY, United States (KBYG) 44-23N 106-43W 1497M
Feb 05, 2023 - 05:53 PM EST / 2023.02.05 2253 UTC
Wind: from the NNW (340 degrees) at 3 MPH (3 KT):0
Visibility: 10 mile(s):0
Sky conditions: partly cloudy
Temperature: 37.9 F (3.3 C)
Dew Point: 23.0 F (-5.0 C)
Relative Humidity: 54%
Pressure (altimeter): 29.59 in. Hg (1002 hPa)
ob: KBYG 052253Z AUTO 34003KT 10SM SCT120 03/M05 A2959 RMK AO2 SLP031 T00331050
cycle: 23

Station Type Date Time Source
KBYG TAF UTC NOAA

Error!

Example: see airport list